Rankin Inlet Airport Rankin Inlet CA
ICAO: CYRT
IATA: YRT
Category: Medium
Scheduled Services: Yes

Elevation: 94 ft
TransAlt. 18000 ft.

Airport Communications:
MF RDO:122.2
VDF:122.2
ARCTIC RDO:126.7
RDO:122.2

CYRT Zoom In..

If you have problems with the map follow the link
https://www.worldairports.se/pages/airport.php?
ICAO=CYRT

Runways:

(A) RW 13 length 6000 ft width 150 ft
---- / hdg 129

(B) RW 31 length 6000 ft width 150 ft
---- / hdg 309

Location; CYRT
Day. 21 / Time. 07.32 Zulu
* Altimeter: 29.86
* Temperature: -06° c. -21.2°f.
* Wind from: 160° Speed 15 kn with Gusts up to 20 kn.
Dewpoint: -09° c.
Visibility: 15 Statute Miles.
Clouds: Broken 1600 ft.

CYRT 210732Z 16015G20KT 15SM BKN016 M06/M09 A2986 RMK SC7 SLP117


Wind From 160°
Speed 15 kn.

 
 
jpsmedia.com for Web Design worldairports.se 2018   terms of use